sensor_id;sensor_type;location;lat;lon;timestamp;pressure;altitude;pressure_sealevel;temperature
76583;BMP280;65462;52.148;7.940;2023-03-23T00:01:46;99575.56;;;11.56
76583;BMP280;65462;52.148;7.940;2023-03-23T00:04:14;99577.91;;;11.58
76583;BMP280;65462;52.148;7.940;2023-03-23T00:06:40;99565.78;;;11.57
76583;BMP280;65462;52.148;7.940;2023-03-23T00:09:05;99562.72;;;11.55
76583;BMP280;65462;52.148;7.940;2023-03-23T00:11:31;99566.03;;;11.52
76583;BMP280;65462;52.148;7.940;2023-03-23T00:13:59;99565.63;;;11.50
76583;BMP280;65462;52.148;7.940;2023-03-23T00:16:27;99565.22;;;11.48
76583;BMP280;65462;52.148;7.940;2023-03-23T00:21:25;99559.56;;;11.49
76583;BMP280;65462;52.148;7.940;2023-03-23T00:24:12;99557.28;;;11.48
76583;BMP280;65462;52.148;7.940;2023-03-23T00:26:40;99547.81;;;11.47
76583;BMP280;65462;52.148;7.940;2023-03-23T00:29:18;99544.41;;;11.46
76583;BMP280;65462;52.148;7.940;2023-03-23T00:31:45;99543.72;;;11.49
76583;BMP280;65462;52.148;7.940;2023-03-23T00:34:21;99530.84;;;11.48
76583;BMP280;65462;52.148;7.940;2023-03-23T00:36:48;99532.34;;;11.49
76583;BMP280;65462;52.148;7.940;2023-03-23T00:39:14;99522.13;;;11.47
76583;BMP280;65462;52.148;7.940;2023-03-23T00:41:44;99531.25;;;11.50
76583;BMP280;65462;52.148;7.940;2023-03-23T00:44:10;99541.41;;;11.48
76583;BMP280;65462;52.148;7.940;2023-03-23T00:46:48;99539.09;;;11.46
76583;BMP280;65462;52.148;7.940;2023-03-23T00:49:16;99536.41;;;11.43
76583;BMP280;65462;52.148;7.940;2023-03-23T00:51:42;99534.91;;;11.42
76583;BMP280;65462;52.148;7.940;2023-03-23T00:54:09;99522.00;;;11.40
76583;BMP280;65462;52.148;7.940;2023-03-23T00:56:34;99515.25;;;11.43
76583;BMP280;65462;52.148;7.940;2023-03-23T00:59:00;99513.03;;;11.45
76583;BMP280;65462;52.148;7.940;2023-03-23T01:01:26;99514.84;;;11.41
76583;BMP280;65462;52.148;7.940;2023-03-23T01:03:51;99519.34;;;11.40
76583;BMP280;65462;52.148;7.940;2023-03-23T01:06:25;99504.25;;;11.41
76583;BMP280;65462;52.148;7.940;2023-03-23T01:08:51;99515.56;;;11.38
76583;BMP280;65462;52.148;7.940;2023-03-23T01:11:19;99524.25;;;11.38
76583;BMP280;65462;52.148;7.940;2023-03-23T01:13:46;99503.44;;;11.37
76583;BMP280;65462;52.148;7.940;2023-03-23T01:16:11;99495.19;;;11.38
76583;BMP280;65462;52.148;7.940;2023-03-23T01:18:37;99503.34;;;11.33
76583;BMP280;65462;52.148;7.940;2023-03-23T01:21:09;99500.66;;;11.30
76583;BMP280;65462;52.148;7.940;2023-03-23T01:23:36;99508.19;;;11.28
76583;BMP280;65462;52.148;7.940;2023-03-23T01:26:10;99493.91;;;11.32
76583;BMP280;65462;52.148;7.940;2023-03-23T01:28:37;99492.00;;;11.33
76583;BMP280;65462;52.148;7.940;2023-03-23T01:31:04;99482.94;;;11.30
76583;BMP280;65462;52.148;7.940;2023-03-23T01:33:30;99478.00;;;11.29
76583;BMP280;65462;52.148;7.940;2023-03-23T01:35:56;99467.47;;;11.32
76583;BMP280;65462;52.148;7.940;2023-03-23T01:38:21;99476.16;;;11.33
76583;BMP280;65462;52.148;7.940;2023-03-23T01:40:46;99482.56;;;11.32
76583;BMP280;65462;52.148;7.940;2023-03-23T01:43:14;99485.94;;;11.29
76583;BMP280;65462;52.148;7.940;2023-03-23T01:45:40;99493.41;;;11.27
76583;BMP280;65462;52.148;7.940;2023-03-23T01:48:26;99488.91;;;11.27
76583;BMP280;65462;52.148;7.940;2023-03-23T01:51:04;99478.31;;;11.27
76583;BMP280;65462;52.148;7.940;2023-03-23T01:53:38;99465.81;;;11.24
76583;BMP280;65462;52.148;7.940;2023-03-23T01:56:06;99469.16;;;11.21
76583;BMP280;65462;52.148;7.940;2023-03-23T01:58:34;99469.50;;;11.20
76583;BMP280;65462;52.148;7.940;2023-03-23T02:01:05;99465.34;;;11.19
76583;BMP280;65462;52.148;7.940;2023-03-23T02:03:32;99457.88;;;11.24
76583;BMP280;65462;52.148;7.940;2023-03-23T02:05:58;99450.31;;;11.23
76583;BMP280;65462;52.148;7.940;2023-03-23T02:08:26;99457.03;;;11.20
76583;BMP280;65462;52.148;7.940;2023-03-23T02:10:53;99458.91;;;11.20
76583;BMP280;65462;52.148;7.940;2023-03-23T02:13:18;99460.81;;;11.19
76583;BMP280;65462;52.148;7.940;2023-03-23T02:15:54;99466.84;;;11.20
76583;BMP280;65462;52.148;7.940;2023-03-23T02:18:38;99456.25;;;11.16
76583;BMP280;65462;52.148;7.940;2023-03-23T02:21:13;99449.03;;;11.17
76583;BMP280;65462;52.148;7.940;2023-03-23T02:24:04;99445.69;;;11.16
76583;BMP280;65462;52.148;7.940;2023-03-23T02:32:47;99456.59;;;11.15
76583;BMP280;65462;52.148;7.940;2023-03-23T02:35:21;99430.53;;;11.17
76583;BMP280;65462;52.148;7.940;2023-03-23T02:38:00;99422.59;;;11.17
76583;BMP280;65462;52.148;7.940;2023-03-23T02:40:35;99423.38;;;11.17
76583;BMP280;65462;52.148;7.940;2023-03-23T02:43:03;99422.22;;;11.15
76583;BMP280;65462;52.148;7.940;2023-03-23T02:45:33;99422.28;;;11.18
76583;BMP280;65462;52.148;7.940;2023-03-23T02:48:00;99411.69;;;11.18
76583;BMP280;65462;52.148;7.940;2023-03-23T02:50:27;99419.63;;;11.18
76583;BMP280;65462;52.148;7.940;2023-03-23T02:52:55;99416.22;;;11.18
76583;BMP280;65462;52.148;7.940;2023-03-23T02:55:23;99415.53;;;11.21
76583;BMP280;65462;52.148;7.940;2023-03-23T02:57:50;99421.91;;;11.20
76583;BMP280;65462;52.148;7.940;2023-03-23T03:00:17;99421.59;;;11.21
76583;BMP280;65462;52.148;7.940;2023-03-23T03:02:48;99419.72;;;11.22
76583;BMP280;65462;52.148;7.940;2023-03-23T03:08:24;99411.06;;;11.25
76583;BMP280;65462;52.148;7.940;2023-03-23T03:10:59;99397.47;;;11.23
76583;BMP280;65462;52.148;7.940;2023-03-23T03:13:54;99383.47;;;11.22
76583;BMP280;65462;52.148;7.940;2023-03-23T03:16:31;99380.06;;;11.22
76583;BMP280;65462;52.148;7.940;2023-03-23T03:19:02;99368.38;;;11.23
76583;BMP280;65462;52.148;7.940;2023-03-23T03:21:33;99362.69;;;11.24
76583;BMP280;65462;52.148;7.940;2023-03-23T03:24:00;99360.00;;;11.21
76583;BMP280;65462;52.148;7.940;2023-03-23T03:26:27;99380.38;;;11.20
76583;BMP280;65462;52.148;7.940;2023-03-23T03:28:54;99371.69;;;11.20
76583;BMP280;65462;52.148;7.940;2023-03-23T03:31:29;99381.16;;;11.21
76583;BMP280;65462;52.148;7.940;2023-03-23T03:33:55;99374.75;;;11.22
76583;BMP280;65462;52.148;7.940;2023-03-23T03:36:24;99374.81;;;11.25
76583;BMP280;65462;52.148;7.940;2023-03-23T03:38:51;99382.69;;;11.22
76583;BMP280;65462;52.148;7.940;2023-03-23T03:41:17;99378.88;;;11.19
76583;BMP280;65462;52.148;7.940;2023-03-23T03:43:43;99378.44;;;11.17
76583;BMP280;65462;52.148;7.940;2023-03-23T03:46:08;99373.53;;;11.16
76583;BMP280;65462;52.148;7.940;2023-03-23T03:48:34;99374.22;;;11.13
76583;BMP280;65462;52.148;7.940;2023-03-23T03:50:59;99378.38;;;11.14
76583;BMP280;65462;52.148;7.940;2023-03-23T03:53:28;99376.09;;;11.12
76583;BMP280;65462;52.148;7.940;2023-03-23T03:55:54;99377.22;;;11.11
76583;BMP280;65462;52.148;7.940;2023-03-23T03:58:22;99383.25;;;11.12
76583;BMP280;65462;52.148;7.940;2023-03-23T04:00:48;99376.44;;;11.11
76583;BMP280;65462;52.148;7.940;2023-03-23T04:03:14;99384.38;;;11.11
76583;BMP280;65462;52.148;7.940;2023-03-23T04:05:40;99394.88;;;11.07
76583;BMP280;65462;52.148;7.940;2023-03-23T04:08:06;99387.31;;;11.06
76583;BMP280;65462;52.148;7.940;2023-03-23T04:10:32;99403.22;;;11.09
76583;BMP280;65462;52.148;7.940;2023-03-23T04:12:58;99408.16;;;11.11
76583;BMP280;65462;52.148;7.940;2023-03-23T04:15:23;99397.66;;;11.14
76583;BMP280;65462;52.148;7.940;2023-03-23T04:17:48;99404.41;;;11.12
76583;BMP280;65462;52.148;7.940;2023-03-23T04:20:15;99398.72;;;11.10
76583;BMP280;65462;52.148;7.940;2023-03-23T04:22:44;99402.94;;;11.14
76583;BMP280;65462;52.148;7.940;2023-03-23T04:25:11;99403.38;;;11.16
76583;BMP280;65462;52.148;7.940;2023-03-23T04:27:40;99396.56;;;11.15
76583;BMP280;65462;52.148;7.940;2023-03-23T04:30:09;99399.22;;;11.15
76583;BMP280;65462;52.148;7.940;2023-03-23T04:32:35;99401.91;;;11.19
76583;BMP280;65462;52.148;7.940;2023-03-23T04:35:01;99394.03;;;11.22
76583;BMP280;65462;52.148;7.940;2023-03-23T04:37:27;99404.25;;;11.24
76583;BMP280;65462;52.148;7.940;2023-03-23T04:39:55;99383.84;;;11.24
76583;BMP280;65462;52.148;7.940;2023-03-23T04:42:27;99388.38;;;11.24
76583;BMP280;65462;52.148;7.940;2023-03-23T04:44:52;99394.81;;;11.23
76583;BMP280;65462;52.148;7.940;2023-03-23T04:47:19;99401.97;;;11.22
76583;BMP280;65462;52.148;7.940;2023-03-23T04:49:44;99398.25;;;11.27
76583;BMP280;65462;52.148;7.940;2023-03-23T04:52:10;99401.66;;;11.27
76583;BMP280;65462;52.148;7.940;2023-03-23T04:54:35;99392.63;;;11.28
76583;BMP280;65462;52.148;7.940;2023-03-23T04:57:00;99390.03;;;11.32
76583;BMP280;65462;52.148;7.940;2023-03-23T04:59:25;99384.72;;;11.32
76583;BMP280;65462;52.148;7.940;2023-03-23T05:01:53;99374.16;;;11.32
76583;BMP280;65462;52.148;7.940;2023-03-23T05:04:18;99370.75;;;11.31
76583;BMP280;65462;52.148;7.940;2023-03-23T05:06:43;99370.03;;;11.34
76583;BMP280;65462;52.148;7.940;2023-03-23T05:09:10;99369.00;;;11.39
76583;BMP280;65462;52.148;7.940;2023-03-23T05:11:36;99372.00;;;11.37
76583;BMP280;65462;52.148;7.940;2023-03-23T05:14:03;99370.44;;;11.36
76583;BMP280;65462;52.148;7.940;2023-03-23T05:16:29;99375.00;;;11.39
76583;BMP280;65462;52.148;7.940;2023-03-23T05:18:55;99370.81;;;11.35
76583;BMP280;65462;52.148;7.940;2023-03-23T05:21:22;99373.88;;;11.37
76583;BMP280;65462;52.148;7.940;2023-03-23T05:23:48;99370.44;;;11.36
76583;BMP280;65462;52.148;7.940;2023-03-23T05:26:20;99378.81;;;11.38
76583;BMP280;65462;52.148;7.940;2023-03-23T05:28:45;99382.16;;;11.35
76583;BMP280;65462;52.148;7.940;2023-03-23T05:31:10;99386.38;;;11.40
76583;BMP280;65462;52.148;7.940;2023-03-23T05:33:36;99396.16;;;11.39
76583;BMP280;65462;52.148;7.940;2023-03-23T05:36:01;99396.25;;;11.43
76583;BMP280;65462;52.148;7.940;2023-03-23T05:38:29;99390.94;;;11.43
76583;BMP280;65462;52.148;7.940;2023-03-23T05:40:58;99396.16;;;11.39
76583;BMP280;65462;52.148;7.940;2023-03-23T05:43:26;99403.72;;;11.37
76583;BMP280;65462;52.148;7.940;2023-03-23T05:45:51;99403.72;;;11.37
76583;BMP280;65462;52.148;7.940;2023-03-23T05:48:17;99397.66;;;11.37
76583;BMP280;65462;52.148;7.940;2023-03-23T05:50:42;99395.38;;;11.35
76583;BMP280;65462;52.148;7.940;2023-03-23T05:53:07;99393.47;;;11.36
76583;BMP280;65462;52.148;7.940;2023-03-23T05:55:32;99401.41;;;11.36
76583;BMP280;65462;52.148;7.940;2023-03-23T05:57:58;99396.91;;;11.36
76583;BMP280;65462;52.148;7.940;2023-03-23T06:00:24;99393.91;;;11.38
76583;BMP280;65462;52.148;7.940;2023-03-23T06:02:49;99400.31;;;11.37
76583;BMP280;65462;52.148;7.940;2023-03-23T06:05:16;99398.09;;;11.39
76583;BMP280;65462;52.148;7.940;2023-03-23T06:07:42;99408.69;;;11.39
76583;BMP280;65462;52.148;7.940;2023-03-23T06:10:08;99397.59;;;11.33
76583;BMP280;65462;52.148;7.940;2023-03-23T06:12:35;99410.16;;;11.40
76583;BMP280;65462;52.148;7.940;2023-03-23T06:15:00;99419.25;;;11.39
76583;BMP280;65462;52.148;7.940;2023-03-23T06:17:25;99412.88;;;11.43
76583;BMP280;65462;52.148;7.940;2023-03-23T06:19:51;99420.47;;;11.45
76583;BMP280;65462;52.148;7.940;2023-03-23T06:22:17;99406.88;;;11.46
76583;BMP280;65462;52.148;7.940;2023-03-23T06:24:43;99406.25;;;11.53
76583;BMP280;65462;52.148;7.940;2023-03-23T06:27:09;99409.28;;;11.55
76583;BMP280;65462;52.148;7.940;2023-03-23T06:29:34;99414.59;;;11.55
76583;BMP280;65462;52.148;7.940;2023-03-23T06:32:01;99422.56;;;11.58
76583;BMP280;65462;52.148;7.940;2023-03-23T06:34:28;99415.09;;;11.64
76583;BMP280;65462;52.148;7.940;2023-03-23T06:36:54;99423.16;;;11.71
76583;BMP280;65462;52.148;7.940;2023-03-23T06:39:20;99423.50;;;11.69
76583;BMP280;65462;52.148;7.940;2023-03-23T06:41:47;99425.09;;;11.74
76583;BMP280;65462;52.148;7.940;2023-03-23T06:44:13;99429.63;;;11.73
76583;BMP280;65462;52.148;7.940;2023-03-23T06:46:39;99432.59;;;11.72
76583;BMP280;65462;52.148;7.940;2023-03-23T06:49:04;99425.84;;;11.74
76583;BMP280;65462;52.148;7.940;2023-03-23T06:51:30;99430.03;;;11.76
76583;BMP280;65462;52.148;7.940;2023-03-23T06:53:55;99421.03;;;11.80
76583;BMP280;65462;52.148;7.940;2023-03-23T06:56:22;99425.94;;;11.82
76583;BMP280;65462;52.148;7.940;2023-03-23T06:58:47;99416.50;;;11.84
76583;BMP280;65462;52.148;7.940;2023-03-23T07:01:13;99418.13;;;11.89
76583;BMP280;65462;52.148;7.940;2023-03-23T07:03:40;99423.44;;;11.92
76583;BMP280;65462;52.148;7.940;2023-03-23T07:06:06;99417.81;;;11.97
76583;BMP280;65462;52.148;7.940;2023-03-23T07:08:33;99421.25;;;11.98
76583;BMP280;65462;52.148;7.940;2023-03-23T07:10:58;99414.13;;;12.02
76583;BMP280;65462;52.148;7.940;2023-03-23T07:13:24;99425.16;;;12.07
76583;BMP280;65462;52.148;7.940;2023-03-23T07:15:50;99414.78;;;12.21
76583;BMP280;65462;52.148;7.940;2023-03-23T07:18:16;99417.09;;;12.26
76583;BMP280;65462;52.148;7.940;2023-03-23T07:20:41;99417.28;;;12.40
76583;BMP280;65462;52.148;7.940;2023-03-23T07:23:08;99429.47;;;12.45
76583;BMP280;65462;52.148;7.940;2023-03-23T07:25:34;99441.31;;;12.55
76583;BMP280;65462;52.148;7.940;2023-03-23T07:28:00;99440.13;;;12.52
76583;BMP280;65462;52.148;7.940;2023-03-23T07:30:26;99441.31;;;12.55
76583;BMP280;65462;52.148;7.940;2023-03-23T07:32:52;99447.41;;;12.59
76583;BMP280;65462;52.148;7.940;2023-03-23T07:35:18;99455.38;;;12.62
76583;BMP280;65462;52.148;7.940;2023-03-23T07:37:43;99438.00;;;12.65
76583;BMP280;65462;52.148;7.940;2023-03-23T07:40:09;99448.25;;;12.66
76583;BMP280;65462;52.148;7.940;2023-03-23T07:42:52;99455.44;;;12.66
76583;BMP280;65462;52.148;7.940;2023-03-23T07:45:17;99454.78;;;12.76
76583;BMP280;65462;52.148;7.940;2023-03-23T07:47:43;99451.41;;;12.79
76583;BMP280;65462;52.148;7.940;2023-03-23T07:50:09;99452.91;;;12.76
76583;BMP280;65462;52.148;7.940;2023-03-23T07:52:36;99454.84;;;12.79
76583;BMP280;65462;52.148;7.940;2023-03-23T07:55:03;99457.91;;;12.85
76583;BMP280;65462;52.148;7.940;2023-03-23T07:57:29;99473.41;;;12.79
76583;BMP280;65462;52.148;7.940;2023-03-23T07:59:56;99471.47;;;12.80
76583;BMP280;65462;52.148;7.940;2023-03-23T08:02:22;99470.09;;;12.89
76583;BMP280;65462;52.148;7.940;2023-03-23T08:04:48;99464.41;;;12.91
76583;BMP280;65462;52.148;7.940;2023-03-23T08:07:14;99470.41;;;12.84
76583;BMP280;65462;52.148;7.940;2023-03-23T08:09:41;99473.06;;;12.84
76583;BMP280;65462;52.148;7.940;2023-03-23T08:12:07;99477.25;;;12.85
76583;BMP280;65462;52.148;7.940;2023-03-23T08:14:32;99483.75;;;12.91
76583;BMP280;65462;52.148;7.940;2023-03-23T08:16:57;99481.53;;;12.97
76583;BMP280;65462;52.148;7.940;2023-03-23T08:19:23;99478.88;;;12.97
76583;BMP280;65462;52.148;7.940;2023-03-23T08:21:49;99490.19;;;12.94
76583;BMP280;65462;52.148;7.940;2023-03-23T08:24:15;99485.38;;;12.99
76583;BMP280;65462;52.148;7.940;2023-03-23T08:26:41;99484.50;;;12.92
76583;BMP280;65462;52.148;7.940;2023-03-23T08:29:07;99487.16;;;12.92
76583;BMP280;65462;52.148;7.940;2023-03-23T08:31:34;99487.09;;;12.88
76583;BMP280;65462;52.148;7.940;2023-03-23T08:34:01;99482.63;;;12.92
76583;BMP280;65462;52.148;7.940;2023-03-23T08:36:27;99481.47;;;12.90
76583;BMP280;65462;52.148;7.940;2023-03-23T08:38:53;99484.16;;;12.93
76583;BMP280;65462;52.148;7.940;2023-03-23T08:41:19;99494.72;;;12.90
76583;BMP280;65462;52.148;7.940;2023-03-23T08:43:45;99495.13;;;12.92
76583;BMP280;65462;52.148;7.940;2023-03-23T08:46:10;99489.06;;;12.95
76583;BMP280;65462;52.148;7.940;2023-03-23T08:48:36;99483.78;;;12.95
76583;BMP280;65462;52.148;7.940;2023-03-23T08:51:04;99496.31;;;12.98
76583;BMP280;65462;52.148;7.940;2023-03-23T08:53:30;99493.69;;;13.01
76583;BMP280;65462;52.148;7.940;2023-03-23T08:55:56;99505.16;;;13.09
76583;BMP280;65462;52.148;7.940;2023-03-23T08:58:22;99494.94;;;13.11
76583;BMP280;65462;52.148;7.940;2023-03-23T09:00:48;99502.56;;;13.16
76583;BMP280;65462;52.148;7.940;2023-03-23T09:03:13;99500.34;;;13.21
76583;BMP280;65462;52.148;7.940;2023-03-23T09:05:38;99505.34;;;13.30
76583;BMP280;65462;52.148;7.940;2023-03-23T09:08:08;99509.19;;;13.36
76583;BMP280;65462;52.148;7.940;2023-03-23T09:10:33;99504.31;;;13.38
76583;BMP280;65462;52.148;7.940;2023-03-23T09:12:58;99508.91;;;13.45
76583;BMP280;65462;52.148;7.940;2023-03-23T09:15:24;99513.84;;;13.46
76583;BMP280;65462;52.148;7.940;2023-03-23T09:17:51;99523.72;;;13.49
76583;BMP280;65462;52.148;7.940;2023-03-23T09:20:20;99522.97;;;13.49
76583;BMP280;65462;52.148;7.940;2023-03-23T09:22:50;99523.34;;;13.47
76583;BMP280;65462;52.148;7.940;2023-03-23T09:25:18;99527.94;;;13.54
76583;BMP280;65462;52.148;7.940;2023-03-23T09:27:46;99534.41;;;13.56
76583;BMP280;65462;52.148;7.940;2023-03-23T09:30:16;99533.66;;;13.56
76583;BMP280;65462;52.148;7.940;2023-03-23T09:32:44;99532.09;;;13.51
76583;BMP280;65462;52.148;7.940;2023-03-23T09:35:09;99528.97;;;13.42
76583;BMP280;65462;52.148;7.940;2023-03-23T09:37:38;99541.84;;;13.40
76583;BMP280;65462;52.148;7.940;2023-03-23T09:40:05;99549.78;;;13.37
76583;BMP280;65462;52.148;7.940;2023-03-23T09:42:44;99556.56;;;13.34
76583;BMP280;65462;52.148;7.940;2023-03-23T09:45:25;99558.34;;;13.23
76583;BMP280;65462;52.148;7.940;2023-03-23T09:48:26;99565.03;;;13.13
76583;BMP280;65462;52.148;7.940;2023-03-23T09:51:17;99566.38;;;12.97
76583;BMP280;65462;52.148;7.940;2023-03-23T09:53:50;99567.47;;;12.92
76583;BMP280;65462;52.148;7.940;2023-03-23T09:56:16;99566.16;;;12.79
76583;BMP280;65462;52.148;7.940;2023-03-23T09:58:53;99560.31;;;12.67
76583;BMP280;65462;52.148;7.940;2023-03-23T10:01:26;99570.00;;;12.56
76583;BMP280;65462;52.148;7.940;2023-03-23T10:04:01;99605.22;;;12.56
76583;BMP280;65462;52.148;7.940;2023-03-23T10:06:28;99620.69;;;12.54
76583;BMP280;65462;52.148;7.940;2023-03-23T10:08:58;99617.16;;;12.46
76583;BMP280;65462;52.148;7.940;2023-03-23T10:14:29;99618.88;;;12.32
76583;BMP280;65462;52.148;7.940;2023-03-23T10:17:18;99626.63;;;12.21
76583;BMP280;65462;52.148;7.940;2023-03-23T10:19:55;99618.88;;;12.09
76583;BMP280;65462;52.148;7.940;2023-03-23T10:22:28;99620.97;;;12.00
76583;BMP280;65462;52.148;7.940;2023-03-23T10:30:26;99615.47;;;11.67
76583;BMP280;65462;52.148;7.940;2023-03-23T10:32:57;99618.25;;;11.55
76583;BMP280;65462;52.148;7.940;2023-03-23T10:35:31;99629.19;;;11.53
76583;BMP280;65462;52.148;7.940;2023-03-23T10:38:03;99631.75;;;11.50
76583;BMP280;65462;52.148;7.940;2023-03-23T10:40:30;99634.31;;;11.46
76583;BMP280;65462;52.148;7.940;2023-03-23T10:42:57;99631.34;;;11.48
76583;BMP280;65462;52.148;7.940;2023-03-23T10:45:26;99621.88;;;11.47
76583;BMP280;65462;52.148;7.940;2023-03-23T10:47:56;99631.63;;;11.43
76583;BMP280;65462;52.148;7.940;2023-03-23T10:50:29;99628.28;;;11.46
76583;BMP280;65462;52.148;7.940;2023-03-23T10:52:57;99631.00;;;11.49
76583;BMP280;65462;52.148;7.940;2023-03-23T10:55:24;99629.53;;;11.52
76583;BMP280;65462;52.148;7.940;2023-03-23T10:58:02;99633.00;;;11.56
76583;BMP280;65462;52.148;7.940;2023-03-23T11:00:29;99631.06;;;11.53
76583;BMP280;65462;52.148;7.940;2023-03-23T11:03:06;99637.19;;;11.57
76583;BMP280;65462;52.148;7.940;2023-03-23T11:05:43;99635.66;;;11.56
76583;BMP280;65462;52.148;7.940;2023-03-23T11:08:18;99645.81;;;11.54
76583;BMP280;65462;52.148;7.940;2023-03-23T11:10:52;99626.19;;;11.55
76583;BMP280;65462;52.148;7.940;2023-03-23T11:13:19;99640.94;;;11.56
76583;BMP280;65462;52.148;7.940;2023-03-23T11:15:46;99625.97;;;11.63
76583;BMP280;65462;52.148;7.940;2023-03-23T11:18:19;99629.41;;;11.64
76583;BMP280;65462;52.148;7.940;2023-03-23T11:20:47;99627.94;;;11.66
76583;BMP280;65462;52.148;7.940;2023-03-23T11:23:20;99633.22;;;11.66
76583;BMP280;65462;52.148;7.940;2023-03-23T11:25:53;99631.75;;;11.69
76583;BMP280;65462;52.148;7.940;2023-03-23T11:28:19;99635.94;;;11.70
76583;BMP280;65462;52.148;7.940;2023-03-23T11:30:44;99642.31;;;11.69
76583;BMP280;65462;52.148;7.940;2023-03-23T11:33:11;99653.63;;;11.66
76583;BMP280;65462;52.148;7.940;2023-03-23T11:35:38;99646.03;;;11.64
76583;BMP280;65462;52.148;7.940;2023-03-23T11:38:03;99658.50;;;11.64
76583;BMP280;65462;52.148;7.940;2023-03-23T11:40:31;99669.84;;;11.64
76583;BMP280;65462;52.148;7.940;2023-03-23T11:43:13;99654.72;;;11.65
76583;BMP280;65462;52.148;7.940;2023-03-23T11:45:48;99638.38;;;11.59
76583;BMP280;65462;52.148;7.940;2023-03-23T11:48:22;99652.72;;;11.58
76583;BMP280;65462;52.148;7.940;2023-03-23T11:50:56;99657.13;;;11.51
76583;BMP280;65462;52.148;7.940;2023-03-23T11:56:28;99641.56;;;11.49
76583;BMP280;65462;52.148;7.940;2023-03-23T11:58:56;99636.63;;;11.48
76583;BMP280;65462;52.148;7.940;2023-03-23T12:09:52;99628.00;;;11.70
76583;BMP280;65462;52.148;7.940;2023-03-23T12:12:48;99628.94;;;11.81
76583;BMP280;65462;52.148;7.940;2023-03-23T12:15:26;99640.50;;;11.92
76583;BMP280;65462;52.148;7.940;2023-03-23T12:20:55;99641.94;;;12.09
76583;BMP280;65462;52.148;7.940;2023-03-23T12:26:05;99625.81;;;12.17
76583;BMP280;65462;52.148;7.940;2023-03-23T12:29:06;99629.50;;;12.13
76583;BMP280;65462;52.148;7.940;2023-03-23T12:34:48;99635.78;;;12.27
76583;BMP280;65462;52.148;7.940;2023-03-23T12:43:09;99647.59;;;12.56
76583;BMP280;65462;52.148;7.940;2023-03-23T12:48:14;99647.06;;;12.70
76583;BMP280;65462;52.148;7.940;2023-03-23T12:50:45;99643.41;;;12.81
76583;BMP280;65462;52.148;7.940;2023-03-23T12:53:19;99652.75;;;12.98
76583;BMP280;65462;52.148;7.940;2023-03-23T12:55:49;99653.16;;;13.00
76583;BMP280;65462;52.148;7.940;2023-03-23T12:58:20;99643.78;;;13.06
76583;BMP280;65462;52.148;7.940;2023-03-23T13:00:59;99646.91;;;13.15
76583;BMP280;65462;52.148;7.940;2023-03-23T13:06:18;99657.69;;;13.29
76583;BMP280;65462;52.148;7.940;2023-03-23T13:09:02;99659.66;;;13.36
76583;BMP280;65462;52.148;7.940;2023-03-23T13:11:36;99658.66;;;13.44
76583;BMP280;65462;52.148;7.940;2023-03-23T13:25:19;99640.41;;;13.75
76583;BMP280;65462;52.148;7.940;2023-03-23T13:27:56;99638.72;;;14.00
76583;BMP280;65462;52.148;7.940;2023-03-23T13:30:22;99633.94;;;14.17
76583;BMP280;65462;52.148;7.940;2023-03-23T13:32:51;99633.69;;;14.36
76583;BMP280;65462;52.148;7.940;2023-03-23T13:35:19;99624.38;;;14.59
76583;BMP280;65462;52.148;7.940;2023-03-23T13:37:50;99632.50;;;14.88
76583;BMP280;65462;52.148;7.940;2023-03-23T13:40:28;99627.25;;;15.05
76583;BMP280;65462;52.148;7.940;2023-03-23T13:42:56;99625.41;;;15.27
76583;BMP280;65462;52.148;7.940;2023-03-23T13:45:36;99605.28;;;15.36
76583;BMP280;65462;52.148;7.940;2023-03-23T13:50:44;99595.81;;;15.49
76583;BMP280;65462;52.148;7.940;2023-03-23T13:53:14;99597.72;;;15.59
76583;BMP280;65462;52.148;7.940;2023-03-23T13:55:49;99600.41;;;15.74
76583;BMP280;65462;52.148;7.940;2023-03-23T13:58:23;99613.72;;;15.81
76583;BMP280;65462;52.148;7.940;2023-03-23T14:00:50;99598.88;;;15.83
76583;BMP280;65462;52.148;7.940;2023-03-23T14:03:25;99606.13;;;15.86
76583;BMP280;65462;52.148;7.940;2023-03-23T14:10:58;99603.44;;;15.97
76583;BMP280;65462;52.148;7.940;2023-03-23T14:13:50;99594.66;;;16.00
76583;BMP280;65462;52.148;7.940;2023-03-23T14:18:55;99628.91;;;16.22
76583;BMP280;65462;52.148;7.940;2023-03-23T14:23:53;99618.59;;;16.38
76583;BMP280;65462;52.148;7.940;2023-03-23T14:26:20;99620.47;;;16.52
76583;BMP280;65462;52.148;7.940;2023-03-23T14:28:50;99631.94;;;16.56
76583;BMP280;65462;52.148;7.940;2023-03-23T14:31:21;99633.41;;;16.64
76583;BMP280;65462;52.148;7.940;2023-03-23T14:33:48;99633.41;;;16.64
76583;BMP280;65462;52.148;7.940;2023-03-23T14:36:28;99644.47;;;16.59
76583;BMP280;65462;52.148;7.940;2023-03-23T14:39:00;99628.88;;;16.54
76583;BMP280;65462;52.148;7.940;2023-03-23T14:41:29;99635.00;;;16.47
76583;BMP280;65462;52.148;7.940;2023-03-23T14:43:54;99632.31;;;16.47
76583;BMP280;65462;52.148;7.940;2023-03-23T14:46:20;99638.78;;;16.43
76583;BMP280;65462;52.148;7.940;2023-03-23T14:48:45;99633.88;;;16.38
76583;BMP280;65462;52.148;7.940;2023-03-23T14:51:18;99615.97;;;16.31
76583;BMP280;65462;52.148;7.940;2023-03-23T14:53:43;99617.88;;;16.27
76583;BMP280;65462;52.148;7.940;2023-03-23T14:56:14;99631.59;;;16.19
76583;BMP280;65462;52.148;7.940;2023-03-23T14:58:50;99649.13;;;16.09
76583;BMP280;65462;52.148;7.940;2023-03-23T15:01:23;99654.84;;;15.97
76583;BMP280;65462;52.148;7.940;2023-03-23T15:03:53;99647.97;;;15.86
76583;BMP280;65462;52.148;7.940;2023-03-23T15:06:21;99644.91;;;15.73
76583;BMP280;65462;52.148;7.940;2023-03-23T15:08:49;99635.78;;;15.63
76583;BMP280;65462;52.148;7.940;2023-03-23T15:13:51;99630.44;;;15.53
76583;BMP280;65462;52.148;7.940;2023-03-23T15:16:27;99636.53;;;15.50
76583;BMP280;65462;52.148;7.940;2023-03-23T15:18:56;99636.13;;;15.48
76583;BMP280;65462;52.148;7.940;2023-03-23T15:21:34;99626.59;;;15.50
76583;BMP280;65462;52.148;7.940;2023-03-23T15:24:01;99624.34;;;15.49
76583;BMP280;65462;52.148;7.940;2023-03-23T15:26:41;99620.91;;;15.48
76583;BMP280;65462;52.148;7.940;2023-03-23T15:31:32;99616.72;;;15.47
76583;BMP280;65462;52.148;7.940;2023-03-23T15:34:03;99620.16;;;15.48
76583;BMP280;65462;52.148;7.940;2023-03-23T15:36:32;99606.47;;;15.53
76583;BMP280;65462;52.148;7.940;2023-03-23T15:38:59;99588.59;;;15.53
76583;BMP280;65462;52.148;7.940;2023-03-23T15:41:30;99591.63;;;15.48